Pagina principale
METAR-TAF:

METAR-TAF

Aeroporti :

Bolzano, Italia

latitudine: 46-28N, longitudine: 011-20E, altezza: 262 m

Osservazione

Il bollettino è stato emesso 49 minuti fa, alle 18:50 UTC
Vento 2 kt da direzioni variabili
Temperature 15°C
Umidità 82%
Pressione 1004 hPa
Visibilità 10 km o più
Poco nuvoloso ad un'altezza di 3000 ft
Nuvoloso ad un'altezza di 8000 ft

METAR: LIPB 191850Z VRB02KT 9999 FEW030 BKN080 15/12 Q1004

Ora: 21:39 (19:39 UTC)

Previsione

Il bollettino è stato emesso 2 ore e 39 minuti fa, alle 17:00 UTC
Previsione valida dal 19 alle 18 UTC al 20 alle 18 UTC
Vento 5 kt da direzioni variabili
Visibilità: 9000 m
Nubi sparse ad un'altezza di 2500 ft
Nuvoloso ad un'altezza di 5000 ft
Temporaneamente
dal 19 alle 18 UTC al 19 alle 22 UTC
pioggia
Temporaneamente
dal 20 alle 02 UTC al 20 alle 16 UTC
pioggia

TAF: LIPB 191700Z 1918/2018 VRB05KT 9000 SCT025 BKN050 TEMPO 1918/1922 RA TEMPO 2002/2016 RA

Osservazioni e previsioni meteorologiche di più di 4000 aeroporti (messaggi METAR e TAF).

Le stazioni disponibili sono rappresentate dai dischi gialli e rossi sulla carta.

Puntare il mouse per vedere il nome della stazione.

Clicca sopra per visualizzare le osservazioni e previsioni meteorologiche.

Per cambiare la mappa : fare clic sui pulsanti verdi con una croce nera per ingrandire, il pulsante verde con un trattino per diminuire, o sulla freccia verde per le mappe adiacenti.


METAR-TAF: